createdAt,value
2017-04-30T04:00:26.630Z,0.86
2017-04-30T04:00:52.110Z,0.87
2017-04-30T04:01:17.687Z,0.91
2017-04-30T04:01:43.255Z,1.02
2017-04-30T04:02:08.628Z,0.98
2017-04-30T04:02:34.080Z,0.99
2017-04-30T04:02:59.569Z,0.99
2017-04-30T04:03:25.033Z,0.94
2017-04-30T04:03:50.520Z,0.98
2017-04-30T04:04:15.959Z,1.08
2017-04-30T04:04:41.433Z,1.08
2017-04-30T04:05:06.908Z,1.08
2017-04-30T04:05:32.346Z,1.02
2017-04-30T04:05:57.806Z,1.08
2017-04-30T04:06:23.246Z,1.08
2017-04-30T04:06:48.707Z,1.12
2017-04-30T04:07:14.181Z,1.05
2017-04-30T04:07:39.597Z,1.04
2017-04-30T04:08:05.083Z,1.12
2017-04-30T04:08:30.561Z,1.06
2017-04-30T04:08:56.007Z,1.02
2017-04-30T04:09:21.534Z,1.02
2017-04-30T04:09:47.088Z,1.01
2017-04-30T04:10:12.536Z,1.01
2017-04-30T04:10:38.028Z,1.05
2017-04-30T04:11:03.532Z,1.13
2017-04-30T04:11:28.918Z,1.13
2017-04-30T04:11:54.412Z,1.2
2017-04-30T04:12:19.883Z,1.17
2017-04-30T04:12:45.365Z,1.26
2017-04-30T04:13:10.801Z,1.23
2017-04-30T04:13:36.266Z,1.14
2017-04-30T04:14:01.706Z,1.19
2017-04-30T04:14:27.186Z,1.2
2017-04-30T04:14:52.620Z,1.2
2017-04-30T04:15:18.081Z,1.19
2017-04-30T04:15:43.559Z,1.26
2017-04-30T04:16:08.990Z,1.24
2017-04-30T04:16:34.488Z,1.3
2017-04-30T04:16:59.948Z,1.28
2017-04-30T04:17:25.442Z,1.3
2017-04-30T04:17:50.885Z,1.26
2017-04-30T04:18:16.375Z,1.31
2017-04-30T04:18:41.860Z,1.23
2017-04-30T04:19:07.328Z,1.3
2017-04-30T04:19:32.800Z,1.34
2017-04-30T04:19:58.314Z,1.31
2017-04-30T04:20:23.705Z,1.31
2017-04-30T04:20:49.138Z,1.42
2017-04-30T04:21:14.635Z,1.38
2017-04-30T04:21:40.096Z,1.32
2017-04-30T04:22:05.566Z,1.37
2017-04-30T04:22:31.023Z,1.37
2017-04-30T04:22:56.523Z,1.41
2017-04-30T04:23:21.980Z,1.41
2017-04-30T04:23:47.436Z,1.38
2017-04-30T04:24:12.889Z,1.44
2017-04-30T04:24:38.337Z,1.35
2017-04-30T04:25:03.802Z,1.37
2017-04-30T04:25:29.276Z,1.38
2017-04-30T04:25:54.754Z,1.42
2017-04-30T04:26:20.316Z,1.44
2017-04-30T04:26:45.770Z,1.41
2017-04-30T04:27:11.249Z,1.45
2017-04-30T04:27:36.708Z,1.58
2017-04-30T04:28:02.163Z,1.5
2017-04-30T04:28:27.612Z,1.48
2017-04-30T04:28:53.075Z,1.6
2017-04-30T04:29:18.531Z,1.52
2017-04-30T04:29:44.170Z,1.52
2017-04-30T04:30:09.638Z,1.62
2017-04-30T04:30:35.087Z,1.6
2017-04-30T04:31:00.589Z,1.58
2017-04-30T04:31:26.064Z,1.58
2017-04-30T04:31:51.521Z,1.62
2017-04-30T04:32:17.027Z,1.58
2017-04-30T04:32:42.515Z,1.59
2017-04-30T04:33:07.966Z,1.56
2017-04-30T04:33:33.424Z,1.63
2017-04-30T04:33:58.880Z,1.66
2017-04-30T04:34:24.361Z,1.63
2017-04-30T04:34:49.818Z,1.58
2017-04-30T04:35:15.269Z,1.63
2017-04-30T04:35:40.713Z,1.66
2017-04-30T04:36:06.193Z,1.68
2017-04-30T04:36:31.646Z,1.63
2017-04-30T04:36:57.118Z,1.6
2017-04-30T04:37:22.609Z,1.66
2017-04-30T04:37:48.062Z,1.67
2017-04-30T04:38:13.523Z,1.68
2017-04-30T04:38:39.001Z,1.71
2017-04-30T04:39:04.478Z,1.77
2017-04-30T04:39:29.913Z,1.74
2017-04-30T04:39:55.398Z,1.71
2017-04-30T04:40:20.890Z,1.7
2017-04-30T04:40:46.314Z,1.77
2017-04-30T04:41:11.810Z,1.78
2017-04-30T04:41:37.336Z,1.73
2017-04-30T04:42:02.777Z,1.81
2017-04-30T04:42:28.239Z,1.8
2017-04-30T04:42:53.706Z,1.73
2017-04-30T04:43:19.168Z,1.81
2017-04-30T04:43:44.656Z,1.74
2017-04-30T04:44:10.109Z,1.74
2017-04-30T04:44:35.594Z,1.74
2017-04-30T04:45:01.043Z,1.7
2017-04-30T04:45:26.531Z,1.8
2017-04-30T04:45:51.992Z,1.74
2017-04-30T04:46:17.453Z,1.84
2017-04-30T04:46:42.937Z,1.8
2017-04-30T04:47:08.392Z,1.92
2017-04-30T04:47:33.873Z,1.78
2017-04-30T04:47:59.356Z,1.85
2017-04-30T04:48:24.855Z,1.77
2017-04-30T04:48:50.322Z,1.87
2017-04-30T04:49:15.742Z,1.85
2017-04-30T04:49:41.233Z,1.77
2017-04-30T04:50:06.781Z,1.97
2017-04-30T04:50:32.246Z,1.95
2017-04-30T04:50:57.697Z,1.94
2017-04-30T04:51:23.126Z,1.95
2017-04-30T04:51:48.612Z,1.89
2017-04-30T04:52:14.089Z,1.92
2017-04-30T04:52:39.527Z,1.94
2017-04-30T04:53:05.075Z,1.94
2017-04-30T04:53:30.548Z,1.97
2017-04-30T04:53:56.033Z,1.95
2017-04-30T04:54:21.494Z,1.92
2017-04-30T04:54:46.935Z,1.99
2017-04-30T04:55:12.424Z,1.99
2017-04-30T04:55:37.869Z,2.04
2017-04-30T04:56:03.325Z,1.99
2017-04-30T04:56:28.829Z,2
2017-04-30T04:56:54.313Z,1.97
2017-04-30T04:57:19.777Z,2.02
2017-04-30T04:57:45.244Z,2.04
2017-04-30T04:58:10.701Z,2.1
2017-04-30T04:58:36.194Z,2.13
2017-04-30T04:59:01.679Z,2.08
2017-04-30T04:59:27.163Z,2.15
2017-04-30T04:59:52.629Z,2.1
2017-04-30T05:00:18.087Z,2.11
2017-04-30T05:00:43.544Z,2.22
2017-04-30T05:01:09.011Z,2.29
2017-04-30T05:01:34.474Z,2.24
2017-04-30T05:01:59.961Z,2.22
2017-04-30T05:02:25.407Z,2.25
2017-04-30T05:02:50.887Z,2.28
2017-04-30T05:03:16.373Z,2.35
2017-04-30T05:03:41.858Z,2.33
2017-04-30T05:04:07.330Z,2.43
2017-04-30T05:04:32.822Z,2.38
2017-04-30T05:04:58.258Z,2.43
2017-04-30T05:05:23.754Z,2.5
2017-04-30T05:05:49.287Z,2.47
2017-04-30T05:06:14.712Z,2.5
2017-04-30T05:06:40.201Z,2.54
2017-04-30T05:07:05.636Z,2.54
2017-04-30T05:07:31.083Z,2.57
2017-04-30T05:07:56.538Z,2.56
2017-04-30T05:08:22.030Z,2.53
2017-04-30T05:08:47.519Z,2.6
2017-04-30T05:09:12.964Z,2.57
2017-04-30T05:09:38.433Z,2.6
2017-04-30T05:10:03.900Z,2.57
2017-04-30T05:10:29.338Z,2.6
2017-04-30T05:10:54.835Z,2.61
2017-04-30T05:11:20.295Z,2.6
2017-04-30T05:11:45.743Z,2.62
2017-04-30T05:12:11.202Z,2.57
2017-04-30T05:12:36.666Z,2.57
2017-04-30T05:13:02.134Z,2.64
2017-04-30T05:13:27.640Z,2.57
2017-04-30T05:13:53.132Z,2.64
2017-04-30T05:14:18.595Z,2.61
2017-04-30T05:14:44.077Z,2.65
2017-04-30T05:15:09.577Z,2.65
2017-04-30T05:15:35.044Z,2.64
2017-04-30T05:16:00.520Z,2.61
2017-04-30T05:16:25.970Z,2.68
2017-04-30T05:16:51.467Z,2.65
2017-04-30T05:17:16.925Z,2.68
2017-04-30T05:17:42.390Z,2.67
2017-04-30T05:18:07.868Z,2.71
2017-04-30T05:18:33.334Z,2.72
2017-04-30T05:18:58.799Z,2.85
2017-04-30T05:19:24.255Z,2.71
2017-04-30T05:19:49.712Z,2.89
2017-04-30T05:20:15.146Z,2.85
2017-04-30T05:20:40.627Z,2.92
2017-04-30T05:21:06.081Z,2.9
2017-04-30T05:21:31.568Z,2.92
2017-04-30T05:21:57.014Z,2.89
2017-04-30T05:22:22.454Z,2.9
2017-04-30T05:22:47.953Z,2.93
2017-04-30T05:23:13.409Z,2.93
2017-04-30T05:23:38.934Z,2.95
2017-04-30T05:24:04.335Z,3.04
2017-04-30T05:24:29.796Z,3
2017-04-30T05:24:55.264Z,3
2017-04-30T05:25:20.723Z,3.05
2017-04-30T05:25:46.201Z,2.98
2017-04-30T05:26:11.670Z,3.04
2017-04-30T05:26:37.126Z,3.04
2017-04-30T05:27:02.600Z,3.08
2017-04-30T05:27:28.044Z,3.01
2017-04-30T05:27:53.517Z,3.04
2017-04-30T05:28:18.994Z,3
2017-04-30T05:28:44.420Z,3.08
2017-04-30T05:29:09.923Z,3.14
2017-04-30T05:29:35.333Z,3.18
2017-04-30T05:30:00.792Z,3.16
2017-04-30T05:30:26.245Z,3.23
2017-04-30T05:30:51.719Z,3.26
2017-04-30T05:31:17.159Z,3.23
2017-04-30T05:31:42.611Z,3.32
2017-04-30T05:32:08.069Z,3.36
2017-04-30T05:32:33.545Z,3.31
2017-04-30T05:32:58.998Z,3.32
2017-04-30T05:33:24.464Z,3.37
2017-04-30T05:33:49.950Z,3.4
2017-04-30T05:34:15.389Z,3.4
2017-04-30T05:34:40.855Z,3.36
2017-04-30T05:35:06.297Z,3.26
2017-04-30T05:35:31.745Z,3.26
2017-04-30T05:35:57.229Z,3.32
2017-04-30T05:36:22.700Z,3.42
2017-04-30T05:36:48.162Z,3.44
2017-04-30T05:37:13.621Z,3.53
2017-04-30T05:37:39.066Z,3.47
2017-04-30T05:38:04.570Z,3.51
2017-04-30T05:38:30.052Z,3.55
2017-04-30T05:38:55.509Z,3.47
2017-04-30T05:39:20.963Z,3.59
2017-04-30T05:39:46.427Z,3.55
2017-04-30T05:40:11.878Z,3.5
2017-04-30T05:40:37.376Z,3.53
2017-04-30T05:41:02.839Z,3.53
2017-04-30T05:41:28.276Z,3.58
2017-04-30T05:41:53.735Z,3.6
2017-04-30T05:42:19.220Z,3.63
2017-04-30T05:42:44.718Z,3.69
2017-04-30T05:43:10.171Z,3.59
2017-04-30T05:43:35.630Z,3.51
2017-04-30T05:44:01.096Z,3.6
2017-04-30T05:44:26.569Z,3.65
2017-04-30T05:44:52.062Z,3.65
2017-04-30T05:45:17.529Z,3.65
2017-04-30T05:45:43.000Z,3.68
2017-04-30T05:46:08.460Z,3.6
2017-04-30T05:46:33.905Z,3.69
2017-04-30T05:46:59.413Z,3.7
2017-04-30T05:47:24.811Z,3.74
2017-04-30T05:47:50.317Z,3.68
2017-04-30T05:48:15.740Z,3.69
2017-04-30T05:48:41.196Z,3.68
2017-04-30T05:49:06.676Z,3.7
2017-04-30T05:49:32.174Z,3.83
2017-04-30T05:49:57.611Z,3.8
2017-04-30T05:50:23.072Z,3.78
2017-04-30T05:50:48.524Z,3.86
2017-04-30T05:51:14.024Z,3.95
2017-04-30T05:51:39.527Z,3.95
2017-04-30T05:52:04.953Z,3.96
2017-04-30T05:52:30.410Z,3.95
2017-04-30T05:52:55.850Z,3.96
2017-04-30T05:53:21.369Z,4.1
2017-04-30T05:53:46.836Z,4.1
2017-04-30T05:54:12.286Z,4.19
2017-04-30T05:54:37.749Z,4.13
2017-04-30T05:55:03.193Z,4.1
2017-04-30T05:55:28.663Z,4.16
2017-04-30T05:55:54.134Z,4.13
2017-04-30T05:56:19.592Z,4.16
2017-04-30T05:56:45.092Z,4.16
2017-04-30T05:57:10.535Z,4.19
2017-04-30T05:57:36.022Z,4.19
2017-04-30T05:58:01.463Z,4.17
2017-04-30T05:58:26.959Z,4.14
2017-04-30T05:58:52.431Z,4.13
2017-04-30T05:59:17.868Z,4.23
2017-04-30T05:59:43.365Z,4.31
2017-04-30T06:00:08.804Z,4.34
2017-04-30T06:00:34.328Z,4.3
2017-04-30T06:00:59.823Z,4.3
2017-04-30T06:01:25.249Z,4.32
2017-04-30T06:01:50.716Z,4.34
2017-04-30T06:02:16.186Z,4.4
2017-04-30T06:02:41.667Z,4.44
2017-04-30T06:03:07.139Z,4.45
2017-04-30T06:03:32.607Z,4.44
2017-04-30T06:03:58.103Z,4.56
2017-04-30T06:04:23.570Z,4.52
2017-04-30T06:04:49.020Z,4.52
2017-04-30T06:05:14.503Z,4.5
2017-04-30T06:05:39.981Z,4.63
2017-04-30T06:06:05.479Z,4.66
2017-04-30T06:06:30.943Z,4.56
2017-04-30T06:06:56.495Z,4.59
2017-04-30T06:07:21.894Z,4.66
2017-04-30T06:07:47.375Z,4.66
2017-04-30T06:08:12.846Z,4.67
2017-04-30T06:08:38.352Z,4.66
2017-04-30T06:09:03.780Z,4.63
2017-04-30T06:09:29.236Z,4.63
2017-04-30T06:09:54.699Z,4.71
2017-04-30T06:10:20.169Z,4.75
2017-04-30T06:10:45.625Z,4.73
2017-04-30T06:11:11.090Z,4.74
2017-04-30T06:11:36.567Z,4.93
2017-04-30T06:12:02.050Z,4.9
2017-04-30T06:12:27.515Z,4.94
2017-04-30T06:12:52.977Z,4.89
2017-04-30T06:13:18.451Z,4.96
2017-04-30T06:13:43.907Z,4.94
2017-04-30T06:14:09.377Z,4.97
2017-04-30T06:14:34.877Z,5.04
2017-04-30T06:15:00.325Z,5.04
2017-04-30T06:15:25.799Z,5.07
2017-04-30T06:15:51.257Z,5.05
2017-04-30T06:16:16.708Z,5.05
2017-04-30T06:16:42.176Z,5.08
2017-04-30T06:17:07.654Z,5.12
2017-04-30T06:17:33.115Z,5.07
2017-04-30T06:17:58.612Z,5.08
2017-04-30T06:18:24.015Z,5.12
2017-04-30T06:18:49.511Z,5.12
2017-04-30T06:19:15.008Z,5.1
2017-04-30T06:19:40.491Z,5.11
2017-04-30T06:20:05.925Z,5.15
2017-04-30T06:20:31.391Z,5.15
2017-04-30T06:20:56.824Z,5.18
2017-04-30T06:21:22.316Z,5.21
2017-04-30T06:21:47.769Z,5.25
2017-04-30T06:22:13.260Z,5.3
2017-04-30T06:22:38.715Z,5.26
2017-04-30T06:23:04.181Z,5.33
2017-04-30T06:23:29.681Z,5.32
2017-04-30T06:23:55.117Z,5.36
2017-04-30T06:24:20.562Z,5.32
2017-04-30T06:24:46.059Z,5.46
2017-04-30T06:25:11.529Z,5.38
2017-04-30T06:25:36.996Z,5.53
2017-04-30T06:26:02.470Z,5.46
2017-04-30T06:26:27.943Z,5.44
2017-04-30T06:26:53.396Z,5.43
2017-04-30T06:27:18.883Z,5.46
2017-04-30T06:27:44.306Z,5.5
2017-04-30T06:28:09.792Z,5.57
2017-04-30T06:28:35.250Z,5.51
2017-04-30T06:29:00.758Z,5.57
2017-04-30T06:29:26.257Z,5.64
2017-04-30T06:29:51.761Z,5.65
2017-04-30T06:30:17.230Z,5.54
2017-04-30T06:30:42.726Z,5.61
2017-04-30T06:31:08.175Z,5.57
2017-04-30T06:31:33.622Z,5.56
2017-04-30T06:31:59.169Z,5.56
2017-04-30T06:32:24.632Z,5.64
2017-04-30T06:32:50.082Z,5.69
2017-04-30T06:33:15.540Z,5.57
2017-04-30T06:33:41.014Z,5.61
2017-04-30T06:34:06.457Z,5.66
2017-04-30T06:34:31.922Z,5.71
2017-04-30T06:34:57.414Z,5.73
2017-04-30T06:35:22.885Z,5.79
2017-04-30T06:35:48.360Z,5.79
2017-04-30T06:36:13.824Z,5.83
2017-04-30T06:36:39.286Z,5.8
2017-04-30T06:37:04.748Z,5.91
2017-04-30T06:37:30.174Z,5.87
2017-04-30T06:37:55.683Z,5.9
2017-04-30T06:38:21.136Z,5.91
2017-04-30T06:38:46.594Z,5.94
2017-04-30T06:39:12.059Z,5.98
2017-04-30T06:39:37.527Z,5.91
2017-04-30T06:40:02.970Z,5.97
2017-04-30T06:40:28.461Z,5.99
2017-04-30T06:40:53.947Z,5.99
2017-04-30T06:41:19.437Z,6.01
2017-04-30T06:41:44.904Z,5.99
2017-04-30T06:42:10.381Z,6.01
2017-04-30T06:42:35.859Z,6.04
2017-04-30T06:43:01.294Z,6.05
2017-04-30T06:43:26.765Z,6.08
2017-04-30T06:43:52.216Z,6.04
2017-04-30T06:44:17.684Z,6.05
2017-04-30T06:44:43.111Z,6.12
2017-04-30T06:45:08.591Z,6.16
2017-04-30T06:45:34.052Z,6.11
2017-04-30T06:45:59.565Z,6.12
2017-04-30T06:46:25.019Z,6.16
2017-04-30T06:46:50.476Z,6.14
2017-04-30T06:47:15.949Z,6.19
2017-04-30T06:47:41.422Z,6.2
2017-04-30T06:48:06.908Z,6.27
2017-04-30T06:48:32.360Z,6.24
2017-04-30T06:48:57.820Z,6.2
2017-04-30T06:49:23.312Z,6.16
2017-04-30T06:49:48.777Z,6.22
2017-04-30T06:50:14.250Z,6.22
2017-04-30T06:50:39.720Z,6.24
2017-04-30T06:51:05.145Z,6.3
2017-04-30T06:51:30.596Z,6.27
2017-04-30T06:51:56.078Z,6.38
2017-04-30T06:52:21.537Z,6.44
2017-04-30T06:52:46.994Z,6.45
2017-04-30T06:53:12.447Z,6.39
2017-04-30T06:53:37.972Z,6.49
2017-04-30T06:54:03.394Z,6.46
2017-04-30T06:54:28.886Z,6.54
2017-04-30T06:54:54.380Z,6.57
2017-04-30T06:55:19.814Z,6.54
2017-04-30T06:55:45.281Z,6.6
2017-04-30T06:56:10.755Z,6.6
2017-04-30T06:56:36.253Z,6.54
2017-04-30T06:57:01.748Z,6.57
2017-04-30T06:57:27.246Z,6.59
2017-04-30T06:57:52.706Z,6.6
2017-04-30T06:58:18.152Z,6.51
2017-04-30T06:58:43.655Z,6.57
2017-04-30T06:59:09.084Z,6.51
2017-04-30T06:59:34.529Z,6.66
2017-04-30T07:00:00.081Z,6.69
2017-04-30T07:00:25.563Z,6.78
2017-04-30T07:00:51.015Z,6.67
2017-04-30T07:01:16.525Z,6.79
2017-04-30T07:01:41.998Z,6.78
2017-04-30T07:02:07.457Z,6.78
2017-04-30T07:02:32.918Z,6.79
2017-04-30T07:02:58.399Z,6.81
2017-04-30T07:03:23.857Z,6.88
2017-04-30T07:03:49.325Z,6.89
2017-04-30T07:04:14.837Z,6.84
2017-04-30T07:04:40.321Z,6.92
2017-04-30T07:05:05.842Z,6.89
2017-04-30T07:05:31.320Z,6.88
2017-04-30T07:05:56.746Z,6.96
2017-04-30T07:06:22.276Z,7.02
2017-04-30T07:06:47.776Z,7.07
2017-04-30T07:07:13.202Z,7.11
2017-04-30T07:07:38.684Z,7.05
2017-04-30T07:08:04.126Z,7.07
2017-04-30T07:08:29.597Z,6.96
2017-04-30T07:08:55.064Z,7.1
2017-04-30T07:09:20.583Z,7.1
2017-04-30T07:09:46.012Z,7.13
2017-04-30T07:10:11.532Z,7.18
2017-04-30T07:10:37.027Z,7.24
2017-04-30T07:11:02.474Z,7.25
2017-04-30T07:11:27.934Z,7.24
2017-04-30T07:11:53.396Z,7.23
2017-04-30T07:12:18.925Z,7.2
2017-04-30T07:12:44.357Z,7.2
2017-04-30T07:13:09.763Z,7.24
2017-04-30T07:13:35.245Z,7.29
2017-04-30T07:14:00.712Z,7.32
2017-04-30T07:14:26.193Z,7.28
2017-04-30T07:14:51.653Z,7.32
2017-04-30T07:15:17.113Z,7.35
2017-04-30T07:15:42.590Z,7.38
2017-04-30T07:16:08.071Z,7.4
2017-04-30T07:16:33.547Z,7.48
2017-04-30T07:16:58.983Z,7.53
2017-04-30T07:17:24.537Z,7.47
2017-04-30T07:17:49.950Z,7.5
2017-04-30T07:18:15.405Z,7.54
2017-04-30T07:18:40.857Z,7.56
2017-04-30T07:19:06.325Z,7.63
2017-04-30T07:19:31.777Z,7.51
2017-04-30T07:19:57.252Z,7.56
2017-04-30T07:20:22.706Z,7.58
2017-04-30T07:20:48.203Z,7.57
2017-04-30T07:21:13.675Z,7.54
2017-04-30T07:21:39.136Z,7.57
2017-04-30T07:22:04.701Z,7.54
2017-04-30T07:22:30.195Z,7.61
2017-04-30T07:22:55.683Z,7.6
2017-04-30T07:23:21.142Z,7.6
2017-04-30T07:23:46.593Z,7.67
2017-04-30T07:24:12.047Z,7.7
2017-04-30T07:24:37.523Z,7.73
2017-04-30T07:25:02.971Z,7.7
2017-04-30T07:25:28.438Z,7.75
2017-04-30T07:25:53.904Z,7.85
2017-04-30T07:26:19.368Z,7.79
2017-04-30T07:26:44.876Z,7.9
2017-04-30T07:27:10.330Z,7.93
2017-04-30T07:27:35.799Z,8.01
2017-04-30T07:28:01.270Z,7.95
2017-04-30T07:28:26.735Z,7.98
2017-04-30T07:28:52.184Z,8.09
2017-04-30T07:29:17.642Z,8.15
2017-04-30T11:24:50.920Z,17.59
2017-04-30T11:25:16.403Z,17.63
2017-04-30T11:25:41.993Z,17.49
2017-04-30T11:26:07.514Z,17.57
2017-04-30T11:26:32.953Z,17.46
2017-04-30T11:26:58.431Z,17.46
2017-04-30T11:27:23.890Z,17.46
2017-04-30T11:27:49.411Z,17.46
2017-04-30T11:28:14.898Z,17.57
2017-04-30T11:28:40.382Z,17.57
2017-04-30T11:29:05.897Z,17.7
2017-04-30T11:29:31.457Z,17.71
2017-04-30T11:29:56.950Z,17.79
2017-04-30T11:30:22.438Z,17.87
2017-04-30T11:30:47.946Z,17.89
2017-04-30T11:31:13.374Z,17.98
2017-04-30T11:31:38.830Z,18
2017-04-30T11:32:04.299Z,18.1
2017-04-30T11:32:29.791Z,18.05
2017-04-30T11:32:55.221Z,18.13
2017-04-30T11:33:20.712Z,18.13
2017-04-30T11:33:46.171Z,18.23
2017-04-30T11:34:11.660Z,18.31
2017-04-30T11:34:37.142Z,18.28
2017-04-30T11:35:02.606Z,18.37
2017-04-30T11:35:28.094Z,18.33
2017-04-30T11:35:53.584Z,18.38
2017-04-30T11:36:19.074Z,18.43
2017-04-30T11:36:44.526Z,18.4
2017-04-30T11:37:10.033Z,18.45
2017-04-30T11:37:35.510Z,18.43
2017-04-30T11:38:01.011Z,18.43
2017-04-30T11:38:26.496Z,18.44
2017-04-30T11:38:51.958Z,18.4
2017-04-30T11:39:17.422Z,18.43
2017-04-30T11:39:42.886Z,18.45
2017-04-30T11:40:08.389Z,18.44
2017-04-30T11:40:33.851Z,18.52
2017-04-30T11:40:59.346Z,18.52
2017-04-30T11:41:24.838Z,18.56
2017-04-30T11:41:50.347Z,18.59
2017-04-30T11:42:15.827Z,18.62
2017-04-30T11:42:41.322Z,18.6
2017-04-30T11:43:06.784Z,18.66
2017-04-30T11:43:32.293Z,18.59
2017-04-30T11:43:57.790Z,18.62
2017-04-30T11:44:23.279Z,18.55
2017-04-30T11:44:48.712Z,18.6
2017-04-30T11:45:14.224Z,18.6
2017-04-30T11:45:39.763Z,18.55
2017-04-30T11:46:05.224Z,18.55
2017-04-30T11:46:30.684Z,18.59
2017-04-30T11:46:56.170Z,18.56
2017-04-30T11:47:21.644Z,18.52
2017-04-30T11:47:47.119Z,18.5
2017-04-30T11:48:12.559Z,18.44
2017-04-30T11:48:38.061Z,18.52
2017-04-30T11:49:03.559Z,18.47
2017-04-30T11:49:29.028Z,18.38
2017-04-30T11:49:54.478Z,18.4
2017-04-30T11:50:19.949Z,18.4
2017-04-30T11:50:45.444Z,18.43
2017-04-30T11:51:10.877Z,18.41
2017-04-30T11:51:36.360Z,18.47
2017-04-30T11:52:01.819Z,18.55
2017-04-30T11:52:27.302Z,18.6
2017-04-30T11:52:52.769Z,18.7
2017-04-30T11:53:18.293Z,18.7
2017-04-30T11:53:43.754Z,18.89
2017-04-30T11:54:09.314Z,18.93
2017-04-30T11:54:34.697Z,19.07
2017-04-30T11:55:00.167Z,19.26
2017-04-30T11:55:25.661Z,19.21
2017-04-30T11:55:51.137Z,19.27
2017-04-30T11:56:16.601Z,19.45
2017-04-30T11:56:42.080Z,19.4
2017-04-30T11:57:07.544Z,19.55
2017-04-30T11:57:33.037Z,19.59
2017-04-30T11:57:58.501Z,19.63
2017-04-30T11:58:23.943Z,19.73
2017-04-30T11:58:49.483Z,19.85
2017-04-30T11:59:14.943Z,19.94
2017-04-30T11:59:40.433Z,20.18
2017-04-30T12:00:05.911Z,20.22
2017-04-30T12:00:31.372Z,20.36
2017-04-30T12:00:56.840Z,20.48
2017-04-30T12:01:22.309Z,20.75
2017-04-30T12:01:47.775Z,20.87
2017-04-30T12:02:13.244Z,20.99
2017-04-30T12:02:38.709Z,21.27
2017-04-30T12:03:04.208Z,21.48
2017-04-30T12:03:29.771Z,21.79
2017-04-30T12:03:55.213Z,22.18
2017-04-30T12:04:20.686Z,22.47
2017-04-30T12:04:46.173Z,22.87
2017-04-30T12:05:11.605Z,23.18
2017-04-30T12:05:37.077Z,23.62
2017-04-30T12:06:02.560Z,23.99
2017-04-30T12:06:28.003Z,24.24
2017-04-30T12:06:53.484Z,24.66
2017-04-30T12:07:18.971Z,24.85
2017-04-30T12:07:44.386Z,25.07
2017-04-30T12:08:09.868Z,25.35
2017-04-30T12:08:35.337Z,25.63
2017-04-30T12:09:00.818Z,25.95
2017-04-30T12:09:26.334Z,26.18
2017-04-30T12:09:51.825Z,26.62
2017-04-30T12:10:17.315Z,26.93
2017-04-30T12:10:42.796Z,27.29
2017-04-30T12:11:08.271Z,27.65
2017-04-30T12:11:33.709Z,27.96
2017-04-30T12:11:59.159Z,28.05
2017-04-30T12:12:24.652Z,28.22
2017-04-30T12:12:50.165Z,28.27
2017-04-30T12:13:15.651Z,28.37
2017-04-30T12:13:41.123Z,28.42
2017-04-30T12:14:06.600Z,28.56
2017-04-30T12:14:32.079Z,28.49
2017-04-30T12:14:57.581Z,28.48
2017-04-30T12:15:23.033Z,28.56
2017-04-30T12:15:48.469Z,28.76
2017-04-30T12:16:13.947Z,28.67
2017-04-30T12:16:39.460Z,28.7
2017-04-30T12:17:04.953Z,28.66
2017-04-30T12:17:30.412Z,28.63
2017-04-30T12:17:55.917Z,28.48
2017-04-30T12:18:21.351Z,28.47
2017-04-30T12:18:46.813Z,28.44
2017-04-30T12:19:12.307Z,28.37
2017-04-30T12:19:37.807Z,28.27
2017-04-30T12:20:03.289Z,28.2
2017-04-30T12:20:28.750Z,28.37
2017-04-30T12:20:54.221Z,28.62
2017-04-30T12:21:19.726Z,28.76
2017-04-30T12:21:45.200Z,28.82
2017-04-30T12:22:10.666Z,28.96
2017-04-30T12:22:36.169Z,28.93
2017-04-30T12:23:01.628Z,29.07
2017-04-30T12:23:27.139Z,29.08
2017-04-30T12:23:52.571Z,29.12
2017-04-30T12:24:18.026Z,29.13
2017-04-30T12:24:43.537Z,29.13
2017-04-30T12:25:08.991Z,29.08
2017-04-30T12:25:34.462Z,29.05
2017-04-30T12:25:59.926Z,29.02
2017-04-30T12:26:25.406Z,28.94
2017-04-30T12:26:50.899Z,29.13
2017-04-30T12:27:16.361Z,29.24
2017-04-30T12:27:41.826Z,29.39
2017-04-30T12:28:07.328Z,29.66
2017-04-30T12:28:32.805Z,29.9
2017-04-30T12:28:58.259Z,30.24
2017-04-30T12:29:23.728Z,30.48
2017-04-30T12:29:49.192Z,30.65
2017-04-30T12:30:14.714Z,30.88
2017-04-30T12:30:40.191Z,31.28
2017-04-30T12:31:05.658Z,31.52
2017-04-30T12:31:31.131Z,31.76
2017-04-30T12:31:56.606Z,31.93
2017-04-30T12:32:22.085Z,32.03
2017-04-30T12:32:47.547Z,32.14
2017-04-30T12:33:13.022Z,32.15
2017-04-30T12:33:38.494Z,32.01
2017-04-30T12:34:03.981Z,31.97
2017-04-30T12:34:29.466Z,31.9
2017-04-30T12:34:54.927Z,31.96
2017-04-30T12:35:20.397Z,31.96
2017-04-30T12:35:45.895Z,31.93
2017-04-30T12:36:11.397Z,32.07
2017-04-30T12:36:36.875Z,31.78
2017-04-30T12:37:02.365Z,31.96
2017-04-30T12:37:27.831Z,31.93
2017-04-30T12:37:53.333Z,31.73
2017-04-30T12:38:18.822Z,31.65
2017-04-30T12:38:44.292Z,31.61
2017-04-30T12:39:09.772Z,31.46
2017-04-30T12:39:35.254Z,31.39
2017-04-30T12:40:00.727Z,31.42
2017-04-30T12:40:26.244Z,31.33
2017-04-30T12:40:51.781Z,31.37
2017-04-30T12:41:17.228Z,31.37
2017-04-30T12:41:42.680Z,31.34
2017-04-30T12:42:08.148Z,31.37
2017-04-30T12:42:33.612Z,31.4
2017-04-30T12:42:59.137Z,31.59
2017-04-30T12:43:24.641Z,31.61
2017-04-30T12:43:50.185Z,31.92
2017-04-30T12:44:15.656Z,32.07
2017-04-30T12:44:41.170Z,32.36
2017-04-30T12:45:06.644Z,32.6
2017-04-30T12:45:32.134Z,32.77
2017-04-30T12:45:57.610Z,32.89
2017-04-30T12:46:23.118Z,32.95
2017-04-30T12:46:48.533Z,33
2017-04-30T12:47:14.052Z,33.09
2017-04-30T12:47:39.543Z,33.14
2017-04-30T12:48:05.030Z,33.28
2017-04-30T12:48:30.539Z,33.37
2017-04-30T12:48:56.044Z,33.37
2017-04-30T12:49:21.529Z,33.43
2017-04-30T12:49:47.024Z,33.53
2017-04-30T12:50:12.490Z,33.43
2017-04-30T12:50:37.980Z,33.42
2017-04-30T12:51:03.447Z,33.64
2017-04-30T12:51:28.921Z,33.62
2017-04-30T12:51:54.422Z,33.67
2017-04-30T12:52:19.907Z,33.79
2017-04-30T12:52:45.376Z,34.01
2017-04-30T12:53:10.832Z,34.24
2017-04-30T12:53:36.314Z,34.33
2017-04-30T12:54:01.811Z,34.58
2017-04-30T12:54:27.298Z,34.67
2017-04-30T12:54:52.796Z,34.77
2017-04-30T12:55:18.222Z,34.73
2017-04-30T12:55:43.697Z,34.61
2017-04-30T12:56:09.177Z,34.5
2017-04-30T12:56:34.654Z,34.25
2017-04-30T12:57:00.157Z,33.73
2017-04-30T12:57:25.639Z,33.49
2017-04-30T12:57:51.124Z,33.4
2017-04-30T12:58:16.607Z,33.19
2017-04-30T12:58:42.059Z,32.93
2017-04-30T12:59:07.537Z,32.87
2017-04-30T12:59:32.999Z,32.73
2017-04-30T12:59:58.457Z,32.63
2017-04-30T13:00:23.934Z,32.51
2017-04-30T13:00:49.413Z,32.43
2017-04-30T13:01:14.872Z,32.33
2017-04-30T13:01:40.344Z,32.15
2017-04-30T13:02:05.835Z,32.08
2017-04-30T13:02:31.298Z,31.97
2017-04-30T13:02:56.785Z,31.89
2017-04-30T13:03:22.238Z,31.59
2017-04-30T13:03:47.718Z,31.46
2017-04-30T13:04:13.246Z,31.46
2017-04-30T13:04:38.740Z,31.44
2017-04-30T13:05:04.171Z,31.56
2017-04-30T13:05:29.644Z,31.62
2017-04-30T13:05:55.099Z,31.76
2017-04-30T13:06:20.566Z,31.8
2017-04-30T13:06:46.031Z,31.96
2017-04-30T13:07:11.522Z,31.99
2017-04-30T13:07:37.024Z,32.11
2017-04-30T13:08:02.528Z,32.33
2017-04-30T13:08:27.998Z,32.65
2017-04-30T13:08:53.495Z,32.75
2017-04-30T13:09:18.975Z,32.93
2017-04-30T13:09:44.453Z,33.11
2017-04-30T13:10:09.918Z,33.36
2017-04-30T13:10:35.418Z,33.5
2017-04-30T13:11:00.860Z,33.73
2017-04-30T13:11:26.334Z,33.84
2017-04-30T13:11:51.821Z,33.52
2017-04-30T13:12:17.373Z,33.24
2017-04-30T13:12:42.868Z,32.8
2017-04-30T13:13:08.347Z,32.11
2017-04-30T13:13:33.822Z,31.52
2017-04-30T13:13:59.301Z,30.66
2017-04-30T13:14:24.795Z,30
2017-04-30T13:14:50.247Z,29.26
2017-04-30T13:15:15.685Z,28.64
2017-04-30T13:15:41.164Z,28.15
2017-04-30T13:16:06.630Z,27.75
2017-04-30T13:16:32.160Z,27.33
2017-04-30T13:16:57.616Z,27
2017-04-30T13:17:23.130Z,26.66
2017-04-30T13:17:48.603Z,26.38
2017-04-30T13:18:14.083Z,26.18
2017-04-30T13:18:39.555Z,25.9
2017-04-30T13:19:04.998Z,25.66
2017-04-30T13:19:30.456Z,25.41
2017-04-30T13:19:55.964Z,25.22
2017-04-30T13:20:21.521Z,24.98
2017-04-30T13:20:46.955Z,24.61
2017-04-30T13:21:12.502Z,24.6
2017-04-30T13:21:38.014Z,24.32
2017-04-30T13:22:03.487Z,24.18
2017-04-30T13:22:28.984Z,23.99
2017-04-30T13:22:54.445Z,23.8
2017-04-30T13:23:19.891Z,23.66
2017-04-30T13:23:45.396Z,23.44
2017-04-30T13:24:10.861Z,23.28
2017-04-30T13:24:36.346Z,23.15
2017-04-30T13:25:01.795Z,23.08
2017-04-30T13:25:27.248Z,23.17
2017-04-30T13:25:52.717Z,23.31
2017-04-30T13:26:18.198Z,23.59
2017-04-30T13:26:43.759Z,23.81
2017-04-30T13:27:09.175Z,24.17
2017-04-30T13:27:34.665Z,24.68
2017-04-30T13:28:00.172Z,25.23
2017-04-30T13:28:25.629Z,25.8
2017-04-30T13:28:51.088Z,26.48
2017-04-30T13:29:16.576Z,27.26
2017-04-30T13:29:42.071Z,27.95
2017-04-30T13:30:07.538Z,28.67
2017-04-30T13:30:33.008Z,29.26
2017-04-30T13:30:58.470Z,29.71
2017-04-30T13:31:23.898Z,30.06
2017-04-30T13:31:49.369Z,30.51